sensor_id;sensor_type;location;lat;lon;timestamp;pressure;altitude;pressure_sealevel;temperature;humidity
42691;BME280;28306;55.744;37.578;2022-08-30T00:00:15;99067.81;;;25.81;46.75
42691;BME280;28306;55.744;37.578;2022-08-30T00:03:00;99101.78;;;25.99;46.57
42691;BME280;28306;55.744;37.578;2022-08-30T00:05:27;99094.44;;;25.89;46.83
42691;BME280;28306;55.744;37.578;2022-08-30T00:07:53;99107.25;;;25.88;47.33
42691;BME280;28306;55.744;37.578;2022-08-30T00:10:19;99091.47;;;25.85;47.14
42691;BME280;28306;55.744;37.578;2022-08-30T00:12:45;99112.19;;;25.86;47.02
42691;BME280;28306;55.744;37.578;2022-08-30T00:15:12;99099.66;;;25.85;47.20
42691;BME280;28306;55.744;37.578;2022-08-30T00:17:38;99101.59;;;25.85;47.27
42691;BME280;28306;55.744;37.578;2022-08-30T00:20:07;99069.06;;;25.64;47.13
42691;BME280;28306;55.744;37.578;2022-08-30T00:22:33;99097.75;;;25.86;47.04
42691;BME280;28306;55.744;37.578;2022-08-30T00:24:59;99094.78;;;25.82;47.12
42691;BME280;28306;55.744;37.578;2022-08-30T00:27:26;99096.66;;;25.87;47.27
42691;BME280;28306;55.744;37.578;2022-08-30T00:29:53;99095.28;;;25.84;47.48
42691;BME280;28306;55.744;37.578;2022-08-30T00:32:19;99099.94;;;25.84;47.35
42691;BME280;28306;55.744;37.578;2022-08-30T00:34:46;99095.88;;;25.81;47.18
42691;BME280;28306;55.744;37.578;2022-08-30T00:37:13;99105.16;;;25.80;47.30
42691;BME280;28306;55.744;37.578;2022-08-30T00:39:39;99107.06;;;25.80;47.68
42691;BME280;28306;55.744;37.578;2022-08-30T00:42:06;99111.69;;;25.79;47.37
42691;BME280;28306;55.744;37.578;2022-08-30T00:44:32;99097.25;;;25.79;47.35
42691;BME280;28306;55.744;37.578;2022-08-30T00:46:57;99096.72;;;25.77;47.41
42691;BME280;28306;55.744;37.578;2022-08-30T00:49:23;99096.72;;;25.77;47.34
42691;BME280;28306;55.744;37.578;2022-08-30T00:51:49;99100.56;;;25.76;47.74
42691;BME280;28306;55.744;37.578;2022-08-30T00:54:15;99090.22;;;25.72;47.72
42691;BME280;28306;55.744;37.578;2022-08-30T00:56:42;99098.41;;;25.72;47.83
42691;BME280;28306;55.744;37.578;2022-08-30T00:59:08;99098.13;;;25.69;47.75
42691;BME280;28306;55.744;37.578;2022-08-30T01:01:34;99088.94;;;25.65;47.92
42691;BME280;28306;55.744;37.578;2022-08-30T01:04:03;99096.84;;;25.61;48.02
42691;BME280;28306;55.744;37.578;2022-08-30T01:06:29;99094.41;;;25.60;48.14
42691;BME280;28306;55.744;37.578;2022-08-30T01:08:57;99088.69;;;25.56;48.14
42691;BME280;28306;55.744;37.578;2022-08-30T01:11:23;99080.34;;;25.47;48.06
42691;BME280;28306;55.744;37.578;2022-08-30T01:13:50;99100.22;;;25.48;48.48
42691;BME280;28306;55.744;37.578;2022-08-30T01:16:18;99082.78;;;25.44;48.41
42691;BME280;28306;55.744;37.578;2022-08-30T01:18:43;99079.03;;;25.40;48.32
42691;BME280;28306;55.744;37.578;2022-08-30T01:21:23;99070.91;;;25.34;48.38
42691;BME280;28306;55.744;37.578;2022-08-30T01:23:53;99083.13;;;25.37;48.37
42691;BME280;28306;55.744;37.578;2022-08-30T01:26:21;99071.41;;;25.36;48.42
42691;BME280;28306;55.744;37.578;2022-08-30T01:28:51;99049.97;;;25.19;48.61
42691;BME280;28306;55.744;37.578;2022-08-30T01:31:18;99068.19;;;25.34;48.19
42691;BME280;28306;55.744;37.578;2022-08-30T01:33:43;99067.63;;;25.32;48.22
42691;BME280;28306;55.744;37.578;2022-08-30T01:36:11;99063.00;;;25.28;48.06
42691;BME280;28306;55.744;37.578;2022-08-30T01:38:46;99052.38;;;25.26;48.15
42691;BME280;28306;55.744;37.578;2022-08-30T01:41:17;99074.72;;;25.33;48.79
42691;BME280;28306;55.744;37.578;2022-08-30T01:43:44;99068.75;;;25.31;48.27
42691;BME280;28306;55.744;37.578;2022-08-30T01:46:12;99073.34;;;25.26;48.77
42691;BME280;28306;55.744;37.578;2022-08-30T01:48:39;99068.22;;;25.19;48.43
42691;BME280;28306;55.744;37.578;2022-08-30T01:51:05;99064.69;;;25.18;48.76
42691;BME280;28306;55.744;37.578;2022-08-30T01:53:33;99082.63;;;25.25;48.73
42691;BME280;28306;55.744;37.578;2022-08-30T01:55:59;99063.63;;;25.14;48.62
42691;BME280;28306;55.744;37.578;2022-08-30T01:58:25;99074.44;;;25.25;48.59
42691;BME280;28306;55.744;37.578;2022-08-30T02:00:50;99069.59;;;25.16;48.47
42691;BME280;28306;55.744;37.578;2022-08-30T02:03:16;99074.16;;;25.26;48.35
42691;BME280;28306;55.744;37.578;2022-08-30T02:05:42;99071.44;;;25.26;48.37
42691;BME280;28306;55.744;37.578;2022-08-30T02:08:07;99060.84;;;25.25;48.37
42691;BME280;28306;55.744;37.578;2022-08-30T02:10:33;99061.69;;;25.20;48.37
42691;BME280;28306;55.744;37.578;2022-08-30T02:12:59;99055.44;;;25.19;48.59
42691;BME280;28306;55.744;37.578;2022-08-30T02:15:25;99057.34;;;25.19;48.43
42691;BME280;28306;55.744;37.578;2022-08-30T02:17:51;99074.19;;;25.21;48.45
42691;BME280;28306;55.744;37.578;2022-08-30T02:20:17;99061.16;;;25.18;48.84
42691;BME280;28306;55.744;37.578;2022-08-30T02:22:42;99068.81;;;25.16;48.57
42691;BME280;28306;55.744;37.578;2022-08-30T02:25:08;99068.81;;;25.16;48.34
42691;BME280;28306;55.744;37.578;2022-08-30T02:27:34;99070.97;;;25.14;48.48
42691;BME280;28306;55.744;37.578;2022-08-30T02:30:00;99082.13;;;25.12;48.75
42691;BME280;28306;55.744;37.578;2022-08-30T02:32:26;99078.59;;;25.12;48.71
42691;BME280;28306;55.744;37.578;2022-08-30T02:34:51;99071.28;;;25.07;48.89
42691;BME280;28306;55.744;37.578;2022-08-30T02:37:17;99085.97;;;25.06;48.93
42691;BME280;28306;55.744;37.578;2022-08-30T02:39:44;99083.81;;;25.03;49.08
42691;BME280;28306;55.744;37.578;2022-08-30T02:42:10;99078.97;;;24.95;49.25
42691;BME280;28306;55.744;37.578;2022-08-30T02:44:36;99082.25;;;24.97;49.25
42691;BME280;28306;55.744;37.578;2022-08-30T02:47:01;99092.03;;;24.93;49.21
42691;BME280;28306;55.744;37.578;2022-08-30T02:49:27;99078.47;;;24.82;49.36
42691;BME280;28306;55.744;37.578;2022-08-30T02:51:53;99084.47;;;24.85;49.60
42691;BME280;28306;55.744;37.578;2022-08-30T02:54:18;99085.31;;;24.80;49.79
42691;BME280;28306;55.744;37.578;2022-08-30T02:56:47;99091.03;;;24.78;49.67
42691;BME280;28306;55.744;37.578;2022-08-30T02:59:15;99094.81;;;24.77;49.53
42691;BME280;28306;55.744;37.578;2022-08-30T03:01:41;99082.31;;;24.71;49.43
42691;BME280;28306;55.744;37.578;2022-08-30T03:04:07;99092.66;;;24.74;49.67
42691;BME280;28306;55.744;37.578;2022-08-30T03:06:32;99090.75;;;24.75;49.70
42691;BME280;28306;55.744;37.578;2022-08-30T03:08:58;99082.34;;;24.66;49.87
42691;BME280;28306;55.744;37.578;2022-08-30T03:11:24;99093.75;;;24.73;49.85
42691;BME280;28306;55.744;37.578;2022-08-30T03:13:50;99097.28;;;24.74;49.50
42691;BME280;28306;55.744;37.578;2022-08-30T03:16:15;99100.00;;;24.74;49.63
42691;BME280;28306;55.744;37.578;2022-08-30T03:18:41;99089.41;;;24.72;49.57
42691;BME280;28306;55.744;37.578;2022-08-30T03:21:12;99073.41;;;24.66;49.73
42691;BME280;28306;55.744;37.578;2022-08-30T03:23:38;99089.69;;;24.71;49.79
42691;BME280;28306;55.744;37.578;2022-08-30T03:26:06;99081.25;;;24.72;49.58
42691;BME280;28306;55.744;37.578;2022-08-30T03:28:32;99087.75;;;24.76;49.43
42691;BME280;28306;55.744;37.578;2022-08-30T03:30:57;99083.94;;;24.77;49.46
42691;BME280;28306;55.744;37.578;2022-08-30T03:33:23;99086.91;;;24.81;49.49
42691;BME280;28306;55.744;37.578;2022-08-30T03:35:49;99074.69;;;24.73;49.50
42691;BME280;28306;55.744;37.578;2022-08-30T03:38:16;99090.47;;;24.81;49.70
42691;BME280;28306;55.744;37.578;2022-08-30T03:40:42;99073.63;;;24.74;49.28
42691;BME280;28306;55.744;37.578;2022-08-30T03:43:08;99097.25;;;24.84;49.49
42691;BME280;28306;55.744;37.578;2022-08-30T03:45:33;99098.06;;;24.85;49.23
42691;BME280;28306;55.744;37.578;2022-08-30T03:47:59;99088.03;;;24.80;49.42
42691;BME280;28306;55.744;37.578;2022-08-30T03:50:27;99100.78;;;24.85;49.46
42691;BME280;28306;55.744;37.578;2022-08-30T03:52:53;99112.19;;;24.87;49.32
42691;BME280;28306;55.744;37.578;2022-08-30T03:55:19;99093.19;;;24.81;49.51
42691;BME280;28306;55.744;37.578;2022-08-30T03:57:45;99105.13;;;24.91;49.38
42691;BME280;28306;55.744;37.578;2022-08-30T04:00:13;99095.84;;;24.92;49.37
42691;BME280;28306;55.744;37.578;2022-08-30T04:02:39;99091.28;;;24.82;49.06
42691;BME280;28306;55.744;37.578;2022-08-30T04:05:07;99108.66;;;24.91;49.35
42691;BME280;28306;55.744;37.578;2022-08-30T04:07:33;99096.72;;;24.82;49.40
42691;BME280;28306;55.744;37.578;2022-08-30T04:09:59;99102.44;;;24.80;49.40
42691;BME280;28306;55.744;37.578;2022-08-30T04:12:25;99085.34;;;24.64;49.62
42691;BME280;28306;55.744;37.578;2022-08-30T04:14:51;99098.38;;;24.73;49.67
42691;BME280;28306;55.744;37.578;2022-08-30T04:17:17;99103.81;;;24.73;49.69
42691;BME280;28306;55.744;37.578;2022-08-30T04:19:43;99103.00;;;24.72;49.56
42691;BME280;28306;55.744;37.578;2022-08-30T04:22:08;99095.16;;;24.60;49.77
42691;BME280;28306;55.744;37.578;2022-08-30T04:24:34;99110.38;;;24.67;49.91
42691;BME280;28306;55.744;37.578;2022-08-30T04:27:00;99106.56;;;24.68;49.87
42691;BME280;28306;55.744;37.578;2022-08-30T04:29:25;99102.19;;;24.67;50.00
42691;BME280;28306;55.744;37.578;2022-08-30T04:31:51;99095.97;;;24.61;49.97
42691;BME280;28306;55.744;37.578;2022-08-30T04:34:17;99107.13;;;24.64;49.81
42691;BME280;28306;55.744;37.578;2022-08-30T04:36:43;99113.66;;;24.69;49.87
42691;BME280;28306;55.744;37.578;2022-08-30T04:39:08;99109.56;;;24.66;49.87
42691;BME280;28306;55.744;37.578;2022-08-30T04:41:36;99108.19;;;24.69;49.92
42691;BME280;28306;55.744;37.578;2022-08-30T04:44:05;99106.56;;;24.68;49.99
42691;BME280;28306;55.744;37.578;2022-08-30T04:46:35;99109.59;;;24.61;50.06
42691;BME280;28306;55.744;37.578;2022-08-30T04:49:02;99093.00;;;24.47;50.44
42691;BME280;28306;55.744;37.578;2022-08-30T04:51:29;99100.59;;;24.50;50.50
42691;BME280;28306;55.744;37.578;2022-08-30T04:53:54;99106.31;;;24.49;50.44
42691;BME280;28306;55.744;37.578;2022-08-30T04:56:22;99101.69;;;24.49;50.55
42691;BME280;28306;55.744;37.578;2022-08-30T04:58:50;99101.94;;;24.53;50.47
42691;BME280;28306;55.744;37.578;2022-08-30T05:01:21;99096.78;;;24.51;50.16
42691;BME280;28306;55.744;37.578;2022-08-30T05:03:49;99103.59;;;24.59;50.15
42691;BME280;28306;55.744;37.578;2022-08-30T05:06:15;99096.50;;;24.53;50.16
42691;BME280;28306;55.744;37.578;2022-08-30T05:08:42;99097.34;;;24.53;50.36
42691;BME280;28306;55.744;37.578;2022-08-30T05:11:08;99100.31;;;24.46;50.49
42691;BME280;28306;55.744;37.578;2022-08-30T05:13:34;99113.38;;;24.44;50.65
42691;BME280;28306;55.744;37.578;2022-08-30T05:16:00;99092.47;;;24.40;50.63
42691;BME280;28306;55.744;37.578;2022-08-30T05:18:27;99080.50;;;24.31;50.67
42691;BME280;28306;55.744;37.578;2022-08-30T05:23:28;99115.31;;;24.44;50.80
42691;BME280;28306;55.744;37.578;2022-08-30T05:25:54;99114.19;;;24.45;50.70
42691;BME280;28306;55.744;37.578;2022-08-30T05:28:19;99117.47;;;24.47;50.75
42691;BME280;28306;55.744;37.578;2022-08-30T05:30:45;99122.34;;;24.50;50.71
42691;BME280;28306;55.744;37.578;2022-08-30T05:33:10;99124.50;;;24.48;50.59
42691;BME280;28306;55.744;37.578;2022-08-30T05:35:37;99113.94;;;24.41;50.74
42691;BME280;28306;55.744;37.578;2022-08-30T05:38:02;99121.25;;;24.46;50.87
42691;BME280;28306;55.744;37.578;2022-08-30T05:40:28;99114.47;;;24.43;50.89
42691;BME280;28306;55.744;37.578;2022-08-30T05:42:57;99112.84;;;24.42;50.79
42691;BME280;28306;55.744;37.578;2022-08-30T05:45:23;99119.38;;;24.52;50.68
42691;BME280;28306;55.744;37.578;2022-08-30T05:47:48;99113.66;;;24.58;50.69
42691;BME280;28306;55.744;37.578;2022-08-30T05:50:14;99107.13;;;24.59;50.41
42691;BME280;28306;55.744;37.578;2022-08-30T05:52:42;99110.91;;;24.63;50.26
42691;BME280;28306;55.744;37.578;2022-08-30T05:55:10;99100.31;;;24.62;50.23
42691;BME280;28306;55.744;37.578;2022-08-30T05:57:38;99118.22;;;24.73;49.99
42691;BME280;28306;55.744;37.578;2022-08-30T06:00:08;99115.78;;;24.72;50.25
42691;BME280;28306;55.744;37.578;2022-08-30T06:02:37;99120.38;;;24.76;49.97
42691;BME280;28306;55.744;37.578;2022-08-30T06:05:03;99111.69;;;24.74;49.97
42691;BME280;28306;55.744;37.578;2022-08-30T06:07:29;99115.78;;;24.77;50.03
42691;BME280;28306;55.744;37.578;2022-08-30T06:09:55;99108.41;;;24.82;49.93
42691;BME280;28306;55.744;37.578;2022-08-30T06:12:20;99128.25;;;24.88;49.80
42691;BME280;28306;55.744;37.578;2022-08-30T06:14:46;99122.53;;;24.90;49.72
42691;BME280;28306;55.744;37.578;2022-08-30T06:17:12;99120.34;;;24.92;49.26
42691;BME280;28306;55.744;37.578;2022-08-30T06:19:37;99121.97;;;24.93;49.12
42691;BME280;28306;55.744;37.578;2022-08-30T06:22:03;99120.63;;;24.95;49.34
42691;BME280;28306;55.744;37.578;2022-08-30T06:24:29;99124.13;;;24.96;49.30
42691;BME280;28306;55.744;37.578;2022-08-30T06:26:55;99115.44;;;24.89;49.30
42691;BME280;28306;55.744;37.578;2022-08-30T06:29:24;99111.41;;;24.81;49.05
42691;BME280;28306;55.744;37.578;2022-08-30T06:31:56;99131.47;;;25.00;48.75
42691;BME280;28306;55.744;37.578;2022-08-30T06:34:22;99129.81;;;25.05;48.77
42691;BME280;28306;55.744;37.578;2022-08-30T06:36:48;99126.81;;;25.11;48.96
42691;BME280;28306;55.744;37.578;2022-08-30T06:39:14;99111.84;;;25.09;48.63
42691;BME280;28306;55.744;37.578;2022-08-30T06:41:41;99116.16;;;25.15;48.41
42691;BME280;28306;55.744;37.578;2022-08-30T06:44:22;99124.28;;;25.30;47.88
42691;BME280;28306;55.744;37.578;2022-08-30T06:46:47;99118.03;;;25.30;47.80
42691;BME280;28306;55.744;37.578;2022-08-30T06:49:13;99109.03;;;25.34;47.55
42691;BME280;28306;55.744;37.578;2022-08-30T06:51:39;99120.34;;;25.47;47.20
42691;BME280;28306;55.744;37.578;2022-08-30T06:54:06;99128.25;;;25.53;47.09
42691;BME280;28306;55.744;37.578;2022-08-30T06:56:36;99123.56;;;25.59;47.05
42691;BME280;28306;55.744;37.578;2022-08-30T06:59:01;99086.38;;;25.39;46.65
42691;BME280;28306;55.744;37.578;2022-08-30T07:01:29;99125.16;;;25.65;46.38
42691;BME280;28306;55.744;37.578;2022-08-30T07:03:56;99120.47;;;25.71;46.53
42691;BME280;28306;55.744;37.578;2022-08-30T07:06:24;99114.75;;;25.72;46.34
42691;BME280;28306;55.744;37.578;2022-08-30T07:08:51;99110.06;;;25.78;46.27
42691;BME280;28306;55.744;37.578;2022-08-30T07:11:28;99123.34;;;25.90;46.72
42691;BME280;28306;55.744;37.578;2022-08-30T07:13:55;99127.13;;;25.94;47.23
42691;BME280;28306;55.744;37.578;2022-08-30T07:16:20;99115.97;;;25.90;46.45
42691;BME280;28306;55.744;37.578;2022-08-30T07:18:46;99117.03;;;25.95;46.20
42691;BME280;28306;55.744;37.578;2022-08-30T07:21:20;99136.91;;;26.00;46.11
42691;BME280;28306;55.744;37.578;2022-08-30T07:23:46;99130.06;;;26.03;46.04
42691;BME280;28306;55.744;37.578;2022-08-30T07:26:19;99118.81;;;26.10;46.85
42691;BME280;28306;55.744;37.578;2022-08-30T07:28:46;99130.22;;;26.17;46.46
42691;BME280;28306;55.744;37.578;2022-08-30T07:31:13;99135.09;;;26.20;46.17
42691;BME280;28306;55.744;37.578;2022-08-30T07:33:40;99138.59;;;26.25;45.98
42691;BME280;28306;55.744;37.578;2022-08-30T07:36:06;99139.34;;;26.31;45.66
42691;BME280;28306;55.744;37.578;2022-08-30T07:38:32;99128.16;;;26.33;45.57
42691;BME280;28306;55.744;37.578;2022-08-30T07:40:57;99129.97;;;26.42;45.15
42691;BME280;28306;55.744;37.578;2022-08-30T07:43:26;99126.91;;;26.49;44.90
42691;BME280;28306;55.744;37.578;2022-08-30T07:45:53;99130.34;;;26.60;45.21
42691;BME280;28306;55.744;37.578;2022-08-30T07:48:18;99111.66;;;26.48;44.86
42691;BME280;28306;55.744;37.578;2022-08-30T07:50:45;99127.47;;;26.75;44.75
42691;BME280;28306;55.744;37.578;2022-08-30T07:53:11;99137.81;;;26.78;44.41
42691;BME280;28306;55.744;37.578;2022-08-30T07:55:38;99133.47;;;26.77;44.60
42691;BME280;28306;55.744;37.578;2022-08-30T07:58:03;99140.19;;;26.85;44.36
42691;BME280;28306;55.744;37.578;2022-08-30T08:00:29;99116.50;;;26.81;43.92
42691;BME280;28306;55.744;37.578;2022-08-30T08:02:55;99139.78;;;26.97;44.11
42691;BME280;28306;55.744;37.578;2022-08-30T08:05:20;99124.72;;;27.00;44.01
42691;BME280;28306;55.744;37.578;2022-08-30T08:07:46;99134.19;;;27.07;43.84
42691;BME280;28306;55.744;37.578;2022-08-30T08:10:12;99133.31;;;27.12;44.02
42691;BME280;28306;55.744;37.578;2022-08-30T08:12:39;99128.88;;;27.16;43.94
42691;BME280;28306;55.744;37.578;2022-08-30T08:15:05;99131.56;;;27.21;43.68
42691;BME280;28306;55.744;37.578;2022-08-30T08:17:31;99127.13;;;27.25;43.62
42691;BME280;28306;55.744;37.578;2022-08-30T08:19:56;99125.72;;;27.28;43.45
42691;BME280;28306;55.744;37.578;2022-08-30T08:22:22;99127.81;;;27.36;43.52
42691;BME280;28306;55.744;37.578;2022-08-30T08:24:48;99126.44;;;27.39;43.06
42691;BME280;28306;55.744;37.578;2022-08-30T08:27:14;99124.22;;;27.41;42.71
42691;BME280;28306;55.744;37.578;2022-08-30T08:29:40;99121.25;;;27.37;42.55
42691;BME280;28306;55.744;37.578;2022-08-30T08:32:06;99081.16;;;27.13;42.75
42691;BME280;28306;55.744;37.578;2022-08-30T08:34:33;99118.75;;;27.41;42.64
42691;BME280;28306;55.744;37.578;2022-08-30T08:36:58;99109.81;;;27.35;43.06
42691;BME280;28306;55.744;37.578;2022-08-30T08:39:24;99114.91;;;27.42;42.25
42691;BME280;28306;55.744;37.578;2022-08-30T08:47:28;99116.53;;;27.62;42.74
42691;BME280;28306;55.744;37.578;2022-08-30T08:49:59;99124.19;;;27.60;41.42
42691;BME280;28306;55.744;37.578;2022-08-30T08:53:09;99129.16;;;27.58;41.06
42691;BME280;28306;55.744;37.578;2022-08-30T08:55:52;99124.06;;;27.51;40.93
42691;BME280;28306;55.744;37.578;2022-08-30T08:58:25;99117.94;;;27.40;40.72
42691;BME280;28306;55.744;37.578;2022-08-30T09:00:52;99137.44;;;27.53;40.83
42691;BME280;28306;55.744;37.578;2022-08-30T09:03:21;99129.09;;;27.44;40.53
42691;BME280;28306;55.744;37.578;2022-08-30T09:05:48;99120.75;;;27.54;41.56
42691;BME280;28306;55.744;37.578;2022-08-30T09:08:16;99135.50;;;27.53;40.26
42691;BME280;28306;55.744;37.578;2022-08-30T09:10:58;99115.13;;;27.45;40.19
42691;BME280;28306;55.744;37.578;2022-08-30T09:13:25;99136.59;;;27.52;40.23
42691;BME280;28306;55.744;37.578;2022-08-30T09:15:52;99131.22;;;27.47;40.71
42691;BME280;28306;55.744;37.578;2022-08-30T09:18:18;99083.22;;;27.22;40.86
42691;BME280;28306;55.744;37.578;2022-08-30T09:20:48;99138.16;;;27.58;40.58
42691;BME280;28306;55.744;37.578;2022-08-30T09:26:01;99137.94;;;27.74;40.80
42691;BME280;28306;55.744;37.578;2022-08-30T09:28:43;99133.88;;;27.71;39.85
42691;BME280;28306;55.744;37.578;2022-08-30T09:34:01;99143.59;;;27.77;39.93
42691;BME280;28306;55.744;37.578;2022-08-30T09:36:33;99150.22;;;27.76;40.27
42691;BME280;28306;55.744;37.578;2022-08-30T09:39:02;99134.41;;;27.73;39.51
42691;BME280;28306;55.744;37.578;2022-08-30T09:41:49;99134.09;;;27.75;39.88
42691;BME280;28306;55.744;37.578;2022-08-30T09:44:18;99139.47;;;27.80;40.15
42691;BME280;28306;55.744;37.578;2022-08-30T09:46:55;99148.94;;;27.87;39.83
42691;BME280;28306;55.744;37.578;2022-08-30T09:49:36;99133.94;;;27.85;39.62
42691;BME280;28306;55.744;37.578;2022-08-30T09:54:47;99134.06;;;27.94;39.45
42691;BME280;28306;55.744;37.578;2022-08-30T09:57:38;99137.38;;;28.10;39.36
42691;BME280;28306;55.744;37.578;2022-08-30T10:00:16;99141.97;;;28.14;39.42
42691;BME280;28306;55.744;37.578;2022-08-30T10:02:58;99133.66;;;28.19;39.56
42691;BME280;28306;55.744;37.578;2022-08-30T10:05:48;99140.97;;;28.24;40.36
42691;BME280;28306;55.744;37.578;2022-08-30T10:16:12;99136.03;;;28.40;37.84
42691;BME280;28306;55.744;37.578;2022-08-30T10:24:45;99138.13;;;28.62;38.19
42691;BME280;28306;55.744;37.578;2022-08-30T10:27:17;99139.63;;;28.68;37.12
42691;BME280;28306;55.744;37.578;2022-08-30T10:30:02;99144.94;;;28.79;37.70
42691;BME280;28306;55.744;37.578;2022-08-30T10:33:16;99144.72;;;28.75;37.38
42691;BME280;28306;55.744;37.578;2022-08-30T10:35:24;99137.22;;;28.81;37.95
42691;BME280;28306;55.744;37.578;2022-08-30T10:37:57;99135.69;;;28.88;37.66
42691;BME280;28306;55.744;37.578;2022-08-30T10:40:33;99135.31;;;28.95;37.75
42691;BME280;28306;55.744;37.578;2022-08-30T10:49:18;99134.56;;;29.17;36.40
42691;BME280;28306;55.744;37.578;2022-08-30T10:55:00;99132.31;;;29.33;35.96
42691;BME280;28306;55.744;37.578;2022-08-30T10:57:28;99135.88;;;29.34;35.49
42691;BME280;28306;55.744;37.578;2022-08-30T10:59:59;99137.69;;;29.38;35.38
42691;BME280;28306;55.744;37.578;2022-08-30T11:02:55;99142.72;;;29.45;35.29
42691;BME280;28306;55.744;37.578;2022-08-30T11:05:43;99136.91;;;29.60;35.96
42691;BME280;28306;55.744;37.578;2022-08-30T11:13:23;99138.56;;;29.84;36.71
42691;BME280;28306;55.744;37.578;2022-08-30T11:16:36;99125.06;;;29.88;36.55
42691;BME280;28306;55.744;37.578;2022-08-30T11:19:16;99118.25;;;29.85;36.51
42691;BME280;28306;55.744;37.578;2022-08-30T11:21:44;99119.78;;;29.77;36.03
42691;BME280;28306;55.744;37.578;2022-08-30T11:29:41;99125.47;;;29.81;36.17
42691;BME280;28306;55.744;37.578;2022-08-30T11:47:57;99129.41;;;30.11;34.17
42691;BME280;28306;55.744;37.578;2022-08-30T11:58:56;99119.09;;;30.40;34.14
42691;BME280;28306;55.744;37.578;2022-08-30T12:03:54;99118.22;;;30.30;35.46
42691;BME280;28306;55.744;37.578;2022-08-30T12:07:04;99100.72;;;30.17;33.97
42691;BME280;28306;55.744;37.578;2022-08-30T12:12:42;99103.63;;;30.21;34.82
42691;BME280;28306;55.744;37.578;2022-08-30T12:15:25;99100.88;;;30.21;33.49
42691;BME280;28306;55.744;37.578;2022-08-30T12:17:56;99108.44;;;30.15;34.33
42691;BME280;28306;55.744;37.578;2022-08-30T12:20:46;99105.53;;;30.12;33.19
42691;BME280;28306;55.744;37.578;2022-08-30T12:23:19;99094.00;;;30.01;33.32
42691;BME280;28306;55.744;37.578;2022-08-30T12:26:50;99099.03;;;30.08;34.25
42691;BME280;28306;55.744;37.578;2022-08-30T12:35:00;99104.75;;;30.20;34.93
42691;BME280;28306;55.744;37.578;2022-08-30T12:40:09;99098.50;;;31.35;33.58
42691;BME280;28306;55.744;37.578;2022-08-30T12:42:38;99093.34;;;31.42;33.48
42691;BME280;28306;55.744;37.578;2022-08-30T12:45:11;99077.97;;;31.85;32.72
42691;BME280;28306;55.744;37.578;2022-08-30T12:47:54;99086.38;;;32.53;32.07
42691;BME280;28306;55.744;37.578;2022-08-30T12:50:26;99086.41;;;32.44;31.94
42691;BME280;28306;55.744;37.578;2022-08-30T12:53:04;99071.78;;;32.05;32.36
42691;BME280;28306;55.744;37.578;2022-08-30T12:55:35;99080.91;;;31.79;32.62
42691;BME280;28306;55.744;37.578;2022-08-30T12:58:13;99091.56;;;31.90;32.87
42691;BME280;28306;55.744;37.578;2022-08-30T13:00:42;99082.69;;;31.75;32.99
42691;BME280;28306;55.744;37.578;2022-08-30T13:03:35;99077.53;;;31.65;33.39
42691;BME280;28306;55.744;37.578;2022-08-30T13:06:03;99061.81;;;31.39;33.81
42691;BME280;28306;55.744;37.578;2022-08-30T13:13:47;99063.75;;;31.39;34.14
42691;BME280;28306;55.744;37.578;2022-08-30T13:18:43;99069.09;;;32.35;32.57
42691;BME280;28306;55.744;37.578;2022-08-30T13:23:57;99064.00;;;33.14;31.39
42691;BME280;28306;55.744;37.578;2022-08-30T13:26:24;99057.34;;;33.15;31.36
42691;BME280;28306;55.744;37.578;2022-08-30T13:31:18;99056.50;;;33.57;31.05
42691;BME280;28306;55.744;37.578;2022-08-30T13:33:44;99036.25;;;33.74;30.23
42691;BME280;28306;55.744;37.578;2022-08-30T13:36:13;99053.13;;;34.18;29.78
42691;BME280;28306;55.744;37.578;2022-08-30T13:38:40;99041.44;;;34.34;29.51
42691;BME280;28306;55.744;37.578;2022-08-30T13:41:08;99068.13;;;34.66;29.10
42691;BME280;28306;55.744;37.578;2022-08-30T13:43:34;99057.78;;;34.63;29.03
42691;BME280;28306;55.744;37.578;2022-08-30T13:46:00;99062.72;;;34.70;29.09
42691;BME280;28306;55.744;37.578;2022-08-30T13:48:26;99067.34;;;34.66;29.09
42691;BME280;28306;55.744;37.578;2022-08-30T13:50:52;99066.66;;;34.69;29.02
42691;BME280;28306;55.744;37.578;2022-08-30T13:53:18;99060.88;;;34.50;29.19
42691;BME280;28306;55.744;37.578;2022-08-30T13:55:43;99052.13;;;34.35;29.27
42691;BME280;28306;55.744;37.578;2022-08-30T13:58:09;99052.53;;;34.00;29.78
42691;BME280;28306;55.744;37.578;2022-08-30T14:00:35;99043.78;;;33.65;30.00
42691;BME280;28306;55.744;37.578;2022-08-30T14:03:02;99055.00;;;33.47;30.25
42691;BME280;28306;55.744;37.578;2022-08-30T14:05:38;99050.63;;;33.25;30.10
42691;BME280;28306;55.744;37.578;2022-08-30T14:08:05;99046.03;;;33.08;30.76
42691;BME280;28306;55.744;37.578;2022-08-30T14:10:34;99038.22;;;32.89;30.70
42691;BME280;28306;55.744;37.578;2022-08-30T14:13:00;99036.19;;;32.77;30.90
42691;BME280;28306;55.744;37.578;2022-08-30T14:15:26;99031.09;;;32.67;31.08
42691;BME280;28306;55.744;37.578;2022-08-30T14:17:52;99029.00;;;32.55;31.37
42691;BME280;28306;55.744;37.578;2022-08-30T14:20:19;99035.25;;;32.43;31.41
42691;BME280;28306;55.744;37.578;2022-08-30T14:22:45;99025.72;;;32.32;31.16
42691;BME280;28306;55.744;37.578;2022-08-30T14:25:11;99025.44;;;32.25;31.44
42691;BME280;28306;55.744;37.578;2022-08-30T14:27:36;99013.53;;;32.12;31.40
42691;BME280;28306;55.744;37.578;2022-08-30T14:30:05;99018.34;;;32.06;31.12
42691;BME280;28306;55.744;37.578;2022-08-30T14:32:31;99020.00;;;31.98;31.34
42691;BME280;28306;55.744;37.578;2022-08-30T14:34:57;99017.13;;;31.86;31.74
42691;BME280;28306;55.744;37.578;2022-08-30T14:37:22;99026.53;;;31.85;31.69
42691;BME280;28306;55.744;37.578;2022-08-30T14:39:48;99025.09;;;31.79;31.85